Time;durP1;ratioP1;P1;durP2;ratioP2;P2;SDS_P1;SDS_P2;PMS_P1;PMS_P2;Temp;Humidity;BMP_temperature;BMP_pressure;BME280_temperature;BME280_humidity;BME280_pressure;Samples;Min_cycle;Max_cycle;Signal;HPM_P1;HPM_P2
2022/04/05 00:01:34;;;;;;;283.95;258.67;;;;;;;17.48;27.01;93151.78;5023898;28;20045;-73
2022/04/05 00:03:59;;;;;;;284.23;258.85;;;;;;;17.47;27.08;93151.03;5024907;28;20049;-72
2022/04/05 00:06:25;;;;;;;286.40;261.17;;;;;;;17.47;27.01;93155.69;5025779;28;20869;-71
2022/04/05 00:08:50;;;;;;;279.88;254.43;;;;;;;17.44;27.03;93143.88;5024810;28;20046;-73
2022/04/05 00:11:16;;;;;;;289.83;264.35;;;;;;;17.45;27.02;93151.50;5016748;28;20053;-73
2022/04/05 00:13:42;;;;;;;278.77;253.15;;;;;;;17.45;27.04;93146.09;5012959;28;20037;-72
2022/04/05 00:16:07;;;;;;;297.67;271.00;;;;;;;17.44;27.09;93141.16;5011959;28;20049;-73
2022/04/05 00:18:33;;;;;;;303.38;276.58;;;;;;;17.43;27.09;93147.78;5014006;28;20044;-73
2022/04/05 00:20:58;;;;;;;286.40;261.17;;;;;;;17.41;27.23;93137.44;5023605;28;20041;-73
2022/04/05 00:23:25;;;;;;;282.10;257.38;;;;;;;17.42;27.09;93135.47;5024658;28;20041;-73
2022/04/05 00:25:51;;;;;;;273.55;249.18;;;;;;;17.42;27.13;93135.47;5027061;28;20053;-73
2022/04/05 00:28:16;;;;;;;281.98;256.88;;;;;;;17.41;26.88;93132.03;5021236;28;20160;-73
2022/04/05 00:30:42;;;;;;;289.77;264.42;;;;;;;17.41;27.16;93134.00;5022122;28;20034;-72
2022/04/05 00:33:07;;;;;;;290.90;265.52;;;;;;;17.42;27.13;93136.22;5025502;28;20040;-71
2022/04/05 00:35:33;;;;;;;287.20;261.95;;;;;;;17.41;27.11;93131.28;5024126;28;20037;-73
2022/04/05 00:37:58;;;;;;;279.80;254.93;;;;;;;17.40;27.00;93129.81;5021298;28;20452;-73
2022/04/05 00:40:25;;;;;;;287.98;262.48;;;;;;;17.40;27.05;93125.13;5024741;28;20057;-72
2022/04/05 00:42:51;;;;;;;287.52;261.80;;;;;;;17.40;27.14;93125.13;5026042;28;20128;-73
2022/04/05 00:45:16;;;;;;;283.95;258.38;;;;;;;17.40;27.31;93116.28;5022124;28;20997;-73
2022/04/05 00:47:48;;;;;;;281.40;256.17;;;;;;;17.42;27.11;93113.84;5020988;28;20046;-73
2022/04/05 00:50:18;;;;;;;281.65;256.52;;;;;;;17.39;27.19;93114.78;5022792;28;20405;-72
2022/04/05 00:52:44;;;;;;;283.40;258.13;;;;;;;17.39;27.21;93115.53;5023610;28;20037;-72
2022/04/05 00:55:11;;;;;;;287.80;262.33;;;;;;;17.38;27.17;93111.34;5023234;28;20045;-71
2022/04/05 00:57:37;;;;;;;284.92;259.65;;;;;;;17.38;27.32;93110.59;5026149;28;20086;-71
2022/04/05 01:00:07;;;;;;;274.30;249.63;;;;;;;17.38;27.23;93113.31;5023429;28;20049;-73
2022/04/05 01:02:37;;;;;;;290.90;264.52;;;;;;;17.38;27.12;93107.91;5016012;28;20552;-72
2022/04/05 01:05:04;;;;;;;285.75;259.00;;;;;;;17.36;27.25;93100.25;5009610;28;20176;-72
2022/04/05 01:07:33;;;;;;;298.55;271.50;;;;;;;17.36;27.26;93108.38;5010073;28;20111;-72
2022/04/05 01:09:59;;;;;;;282.63;257.38;;;;;;;17.37;27.23;93103.72;5020461;28;20037;-71
2022/04/05 01:12:24;;;;;;;284.67;259.45;;;;;;;17.35;27.32;93109.59;5026999;28;20056;-72
2022/04/05 01:14:51;;;;;;;299.13;272.27;;;;;;;17.36;27.41;93104.94;5024217;28;20755;-71
2022/04/05 01:17:18;;;;;;;300.58;273.55;;;;;;;17.35;27.33;93101.47;5017704;28;21356;-72
2022/04/05 01:19:46;;;;;;;286.10;260.88;;;;;;;17.36;27.26;93102.22;5025271;28;20041;-73
2022/04/05 01:22:13;;;;;;;283.90;258.63;;;;;;;17.36;27.43;93096.81;5021231;28;20042;-73
2022/04/05 01:24:38;;;;;;;282.02;256.92;;;;;;;17.37;27.38;93101.00;5020964;28;20057;-71
2022/04/05 01:27:06;;;;;;;283.48;258.33;;;;;;;17.37;27.40;93106.41;5022850;28;20045;-72
2022/04/05 01:29:32;;;;;;;288.77;263.13;;;;;;;17.37;27.33;93103.72;5022100;28;20439;-72
2022/04/05 01:32:04;;;;;;;290.80;265.33;;;;;;;17.38;27.18;93108.66;5022582;28;20406;-72
2022/04/05 01:34:32;;;;;;;293.55;267.88;;;;;;;17.38;27.27;93107.91;5020085;28;20463;-72
2022/04/05 01:37:00;;;;;;;288.55;263.08;;;;;;;17.38;27.04;93099.78;5019362;28;20084;-71
2022/04/05 01:39:28;;;;;;;291.33;265.80;;;;;;;17.36;27.41;93102.97;5024211;28;20189;-72
2022/04/05 01:41:56;;;;;;;291.75;266.30;;;;;;;17.36;27.34;93094.84;5021775;28;20038;-72
2022/04/05 01:44:22;;;;;;;285.65;260.20;;;;;;;17.36;27.58;93096.81;5022760;28;20050;-72
2022/04/05 01:46:48;;;;;;;287.17;261.52;;;;;;;17.37;27.32;93101.00;5021755;28;20616;-72
2022/04/05 01:49:14;;;;;;;299.58;273.45;;;;;;;17.36;27.37;93102.22;5021399;28;20103;-72
2022/04/05 01:51:42;;;;;;;283.23;257.77;;;;;;;17.37;27.70;93090.94;5024300;28;20051;-72
2022/04/05 01:54:09;;;;;;;282.38;256.77;;;;;;;17.38;27.51;93094.38;5020640;28;20620;-70
2022/04/05 01:56:41;;;;;;;292.25;266.08;;;;;;;17.37;27.34;93093.66;5019587;28;20120;-72
2022/04/05 01:59:07;;;;;;;287.55;261.27;;;;;;;17.37;27.23;93093.66;5008298;28;20813;-71
2022/04/05 02:01:33;;;;;;;294.13;267.48;;;;;;;17.37;27.40;93085.53;5008808;28;20041;-73
2022/04/05 02:03:58;;;;;;;287.60;262.02;;;;;;;17.37;27.37;93090.19;5021282;28;20068;-72
2022/04/05 02:06:25;;;;;;;283.52;258.40;;;;;;;17.36;27.57;93083.31;5023100;28;20429;-72
2022/04/05 02:08:51;;;;;;;293.15;267.00;;;;;;;17.34;27.34;93078.38;5021034;28;20504;-72
2022/04/05 02:11:17;;;;;;;281.33;255.77;;;;;;;17.33;27.07;93082.28;5019040;28;20068;-72
2022/04/05 02:13:42;;;;;;;296.33;269.77;;;;;;;17.33;27.52;93076.88;5019917;28;20053;-72
2022/04/05 02:16:08;;;;;;;286.13;259.90;;;;;;;17.33;27.50;93086.94;5016841;28;20510;-72
2022/04/05 02:18:37;;;;;;;293.90;267.38;;;;;;;17.32;27.54;93072.69;5024170;28;20087;-71
2022/04/05 02:21:05;;;;;;;282.52;257.35;;;;;;;17.32;27.45;93069.25;5020632;28;20049;-72
2022/04/05 02:23:31;;;;;;;289.17;263.33;;;;;;;17.33;27.52;93071.47;5023489;28;20037;-72
2022/04/05 02:25:57;;;;;;;286.13;260.70;;;;;;;17.32;27.36;93067.28;5022617;28;20061;-72
2022/04/05 02:28:23;;;;;;;284.83;259.50;;;;;;;17.32;27.34;93070.00;5020132;28;20125;-73
2022/04/05 02:30:49;;;;;;;285.42;260.17;;;;;;;17.33;27.42;93068.03;5005348;28;20041;-72
2022/04/05 02:33:15;;;;;;;287.00;261.38;;;;;;;17.32;27.30;93064.59;5022690;28;20108;-72
2022/04/05 02:35:40;;;;;;;285.23;259.67;;;;;;;17.32;27.39;93070.00;5021799;28;20104;-71
2022/04/05 02:38:06;;;;;;;282.25;256.85;;;;;;;17.32;27.45;93061.88;5021357;28;20041;-71
2022/04/05 02:40:32;;;;;;;295.00;268.42;;;;;;;17.32;27.57;93070.00;5022836;28;20034;-72
2022/04/05 02:42:57;;;;;;;282.67;257.30;;;;;;;17.31;27.40;93073.16;5023203;28;20049;-71
2022/04/05 02:45:23;;;;;;;286.02;260.00;;;;;;;17.30;27.43;93063.56;5023688;28;20140;-71
2022/04/05 02:47:49;;;;;;;287.08;261.42;;;;;;;17.31;27.51;93060.41;5021643;28;20045;-70
2022/04/05 02:50:17;;;;;;;279.67;254.27;;;;;;;17.32;27.63;93050.34;5022065;28;20037;-71
2022/04/05 02:52:45;;;;;;;277.00;252.23;;;;;;;17.31;27.40;93055.00;5021020;28;20521;-71
2022/04/05 02:55:11;;;;;;;289.65;263.55;;;;;;;17.30;27.49;93050.81;5019675;28;20053;-72
2022/04/05 02:57:38;;;;;;;285.60;260.08;;;;;;;17.31;27.54;93060.41;5025667;28;20116;-72
2022/04/05 03:00:07;;;;;;;288.23;262.40;;;;;;;17.29;27.53;93057.41;5018979;28;20439;-71
2022/04/05 03:02:34;;;;;;;287.35;261.65;;;;;;;17.31;27.51;93048.84;5023661;28;20054;-72
2022/04/05 03:05:07;;;;;;;290.60;264.58;;;;;;;17.31;27.62;93043.44;5023131;28;20064;-71
2022/04/05 03:07:37;;;;;;;284.85;259.52;;;;;;;17.30;27.71;93036.56;5025269;28;20146;-72
2022/04/05 03:10:08;;;;;;;289.60;263.17;;;;;;;17.29;27.56;93030.41;5017519;28;20034;-71
2022/04/05 03:12:35;;;;;;;281.63;255.82;;;;;;;17.29;27.69;93030.41;5022127;28;20033;-72
2022/04/05 03:15:01;;;;;;;302.05;274.27;;;;;;;17.30;27.73;93033.84;5027433;28;20120;-72
2022/04/05 03:17:27;;;;;;;277.77;252.45;;;;;;;17.29;27.53;93041.22;5023921;28;20042;-71
2022/04/05 03:19:52;;;;;;;289.35;263.00;;;;;;;17.30;27.58;93036.56;5019036;28;20045;-72
2022/04/05 03:22:18;;;;;;;285.33;259.70;;;;;;;17.30;27.40;93045.41;5023718;28;20047;-72
2022/04/05 03:24:44;;;;;;;277.92;252.68;;;;;;;17.31;27.54;93041.47;5023045;28;20045;-72
2022/04/05 03:27:10;;;;;;;286.98;261.23;;;;;;;17.31;27.58;93044.19;5022924;28;20041;-72
2022/04/05 03:29:35;;;;;;;279.60;254.15;;;;;;;17.32;27.58;93031.41;5026879;28;20069;-71
2022/04/05 03:32:02;;;;;;;290.27;264.63;;;;;;;17.31;27.48;93035.34;5024416;28;20517;-72
2022/04/05 03:34:28;;;;;;;296.52;269.92;;;;;;;17.30;27.36;93033.84;5020528;28;20545;-72
2022/04/05 03:36:54;;;;;;;281.40;255.85;;;;;;;17.30;27.50;93028.44;5023027;28;20560;-72
2022/04/05 03:39:20;;;;;;;280.13;254.60;;;;;;;17.30;27.45;93023.78;5026443;28;20050;-72
2022/04/05 03:41:46;;;;;;;279.00;253.70;;;;;;;17.29;27.74;93027.69;5027965;28;20496;-71
2022/04/05 03:44:11;;;;;;;291.30;265.25;;;;;;;17.28;27.65;93034.31;5026384;28;20109;-72
2022/04/05 03:46:37;;;;;;;278.63;253.75;;;;;;;17.28;27.71;93028.91;5026762;28;20056;-71
2022/04/05 03:49:03;;;;;;;288.85;263.17;;;;;;;17.28;27.74;93026.22;5026703;28;20040;-72
2022/04/05 03:51:29;;;;;;;291.95;266.02;;;;;;;17.27;27.72;93026.69;5025295;28;20109;-72
2022/04/05 03:53:56;;;;;;;285.85;260.35;;;;;;;17.28;27.66;93031.63;5025606;28;20055;-73
2022/04/05 03:56:22;;;;;;;288.70;263.20;;;;;;;17.28;27.66;93028.16;5024511;28;20130;-72
2022/04/05 03:58:48;;;;;;;285.52;260.17;;;;;;;17.30;27.73;93036.56;5026103;28;20040;-71
2022/04/05 04:01:15;;;;;;;293.70;267.33;;;;;;;17.31;27.67;93027.97;5025992;28;20049;-72
2022/04/05 04:03:40;;;;;;;290.13;264.10;;;;;;;17.33;27.68;93036.34;5021262;28;20120;-73
2022/04/05 04:06:06;;;;;;;285.67;260.25;;;;;;;17.34;27.69;93020.88;5022200;28;20120;-70
2022/04/05 04:08:31;;;;;;;291.98;266.25;;;;;;;17.34;27.78;93026.28;5022879;28;20045;-73
2022/04/05 04:10:57;;;;;;;285.00;259.75;;;;;;;17.35;27.61;93031.22;5026032;28;20049;-73
2022/04/05 04:13:23;;;;;;;284.45;258.85;;;;;;;17.36;27.69;93037.38;5024178;28;20413;-73
2022/04/05 04:15:48;;;;;;;289.08;263.35;;;;;;;17.37;27.76;93028.03;5025866;28;20104;-72
2022/04/05 04:18:14;;;;;;;285.00;259.52;;;;;;;17.37;27.83;93017.97;5024918;28;20143;-74
2022/04/05 04:20:42;;;;;;;278.88;254.30;;;;;;;17.39;27.83;93010.13;5023457;28;20053;-73
2022/04/05 04:23:11;;;;;;;282.45;257.17;;;;;;;17.41;27.73;93013.09;5023168;28;20045;-71
2022/04/05 04:25:37;;;;;;;287.73;262.33;;;;;;;17.45;27.59;93005.53;5024668;28;20095;-73
2022/04/05 04:28:07;;;;;;;289.88;264.45;;;;;;;17.48;27.69;93022.03;5025286;28;20288;-73
2022/04/05 04:30:34;;;;;;;288.38;263.02;;;;;;;17.48;27.62;93024.72;5022945;28;20382;-73
2022/04/05 04:33:00;;;;;;;286.10;260.75;;;;;;;17.50;27.80;93022.28;5025776;28;20049;-74
2022/04/05 04:35:27;;;;;;;302.27;276.23;;;;;;;17.52;27.67;93026.00;5023535;28;20050;-75
2022/04/05 04:37:52;;;;;;;296.40;270.77;;;;;;;17.54;27.80;93020.88;5025455;28;20053;-74
2022/04/05 04:40:18;;;;;;;296.17;270.50;;;;;;;17.56;27.76;93015.72;5021444;28;20067;-73
2022/04/05 04:42:44;;;;;;;304.35;278.27;;;;;;;17.57;27.72;93021.88;5024883;28;20073;-73
2022/04/05 04:45:11;;;;;;;306.17;280.33;;;;;;;17.58;27.89;93015.97;5024989;28;20569;-73
2022/04/05 04:47:37;;;;;;;306.42;280.52;;;;;;;17.60;27.73;93018.94;5027528;28;20037;-73
2022/04/05 04:50:03;;;;;;;301.85;276.23;;;;;;;17.64;27.73;93016.03;5026251;28;20052;-73
2022/04/05 04:52:29;;;;;;;294.60;269.35;;;;;;;17.65;27.65;93018.31;5027933;28;20107;-73
2022/04/05 04:54:55;;;;;;;313.73;286.77;;;;;;;17.69;27.62;93020.81;5026432;28;20053;-73
2022/04/05 04:57:23;;;;;;;294.73;269.40;;;;;;;17.70;27.67;93016.88;5040657;28;20072;-73
2022/04/05 04:59:49;;;;;;;302.05;276.55;;;;;;;17.71;27.48;93021.81;5024644;28;20075;-73
2022/04/05 05:02:15;;;;;;;309.90;283.50;;;;;;;17.72;27.55;93019.84;5024322;28;20105;-74
2022/04/05 05:04:41;;;;;;;303.13;277.13;;;;;;;17.72;27.71;93025.25;5032016;28;20079;-71
2022/04/05 05:07:06;;;;;;;312.25;286.30;;;;;;;17.72;27.76;93025.25;5023835;28;20037;-73
2022/04/05 05:09:33;;;;;;;302.95;277.45;;;;;;;17.74;27.73;93025.53;5027684;28;20049;-74
2022/04/05 05:12:00;;;;;;;299.67;274.25;;;;;;;17.73;27.37;93024.78;5027304;28;20061;-73
2022/04/05 05:14:27;;;;;;;304.33;278.60;;;;;;;17.76;27.64;93023.09;5028768;28;20103;-71
2022/04/05 05:16:53;;;;;;;305.75;280.08;;;;;;;17.76;27.60;93020.38;5027589;28;20136;-74
2022/04/05 05:19:20;;;;;;;297.15;271.80;;;;;;;17.77;27.72;93019.91;5024623;28;20077;-73
2022/04/05 05:21:46;;;;;;;309.60;283.90;;;;;;;17.79;27.62;93022.13;5025322;28;20037;-73
2022/04/05 05:24:11;;;;;;;308.98;282.98;;;;;;;17.80;27.61;93023.63;5026635;28;20420;-73
2022/04/05 05:26:37;;;;;;;295.23;270.25;;;;;;;17.80;27.66;93026.34;5025526;28;20136;-73
2022/04/05 05:29:03;;;;;;;308.73;282.85;;;;;;;17.82;27.62;93031.25;5025874;28;20045;-74
2022/04/05 05:31:29;;;;;;;316.35;289.77;;;;;;;17.82;27.49;93031.25;5024949;28;20769;-74
2022/04/05 05:33:54;;;;;;;317.80;290.77;;;;;;;17.80;27.66;93031.75;5025357;28;20263;-74
2022/04/05 05:36:20;;;;;;;321.05;294.40;;;;;;;17.81;27.62;93032.47;5021652;28;20173;-72
2022/04/05 05:38:45;;;;;;;316.00;289.80;;;;;;;17.78;27.45;93026.81;5026363;28;20104;-74
2022/04/05 05:41:11;;;;;;;318.05;291.83;;;;;;;17.82;27.63;93034.72;5026598;28;20176;-73
2022/04/05 05:43:38;;;;;;;310.90;284.90;;;;;;;17.83;27.51;93028.09;5028132;28;20033;-74
2022/04/05 05:46:06;;;;;;;319.70;293.40;;;;;;;17.83;27.82;93035.47;5025594;28;21959;-74
2022/04/05 05:48:33;;;;;;;322.95;296.58;;;;;;;17.85;27.36;93033.03;5025114;28;20037;-74
2022/04/05 05:50:59;;;;;;;311.83;285.25;;;;;;;17.85;27.60;93035.72;5022797;28;20048;-74
2022/04/05 05:53:24;;;;;;;315.15;288.70;;;;;;;17.85;27.46;93043.84;5026614;28;20041;-72
2022/04/05 05:55:50;;;;;;;327.83;300.23;;;;;;;17.84;27.59;93047.75;5015941;28;20806;-74
2022/04/05 05:58:16;;;;;;;316.45;290.08;;;;;;;17.86;27.60;93046.06;5021864;28;20493;-74
2022/04/05 06:00:42;;;;;;;311.65;285.80;;;;;;;17.88;27.60;93045.59;5026311;28;20045;-75
2022/04/05 06:03:10;;;;;;;313.15;286.98;;;;;;;17.87;27.53;93047.56;5041898;28;20037;-75
2022/04/05 06:05:36;;;;;;;318.65;291.77;;;;;;;17.87;27.43;93047.56;5022010;28;20116;-74
2022/04/05 06:08:01;;;;;;;313.05;287.58;;;;;;;17.88;27.54;93048.28;5017954;28;20041;-74
2022/04/05 06:10:28;;;;;;;302.80;277.63;;;;;;;17.87;27.53;93052.22;5020902;28;20103;-75
2022/04/05 06:12:57;;;;;;;318.25;292.38;;;;;;;17.88;27.64;93053.72;5032197;28;20154;-75
2022/04/05 06:15:25;;;;;;;304.38;278.90;;;;;;;17.88;27.45;93051.75;5030596;28;20045;-75
2022/04/05 06:17:51;;;;;;;317.58;291.13;;;;;;;17.89;27.61;93052.50;5023641;28;20049;-75
2022/04/05 06:20:20;;;;;;;312.30;286.30;;;;;;;17.89;27.61;93063.31;5023610;28;20042;-75
2022/04/05 06:22:49;;;;;;;310.15;284.25;;;;;;;17.90;27.52;93062.09;5033710;28;20145;-74
2022/04/05 06:25:18;;;;;;;309.27;283.50;;;;;;;17.92;27.53;93070.47;5024644;28;20080;-75
2022/04/05 06:27:44;;;;;;;303.30;277.67;;;;;;;17.91;27.60;93075.13;5025484;28;20053;-75
2022/04/05 06:30:11;;;;;;;313.83;287.38;;;;;;;17.92;27.48;93073.19;5022901;28;20057;-75
2022/04/05 06:32:37;;;;;;;304.80;279.00;;;;;;;17.92;27.56;93073.19;5025782;28;20045;-75
2022/04/05 06:35:05;;;;;;;307.75;280.92;;;;;;;17.92;27.35;93075.88;5027235;28;20077;-75
2022/04/05 06:37:31;;;;;;;299.35;274.10;;;;;;;17.93;27.57;93069.25;5029521;28;20104;-75
2022/04/05 06:39:56;;;;;;;313.63;287.52;;;;;;;17.92;27.63;93073.19;5033526;28;20037;-75
2022/04/05 06:42:25;;;;;;;315.92;289.58;;;;;;;17.91;27.46;93085.97;5020214;28;20140;-75
2022/04/05 06:44:52;;;;;;;320.15;292.70;;;;;;;17.91;27.67;93075.13;5031614;28;20036;-75
2022/04/05 06:47:17;;;;;;;302.67;276.92;;;;;;;17.93;27.54;93096.31;5032338;28;20706;-74
2022/04/05 06:49:43;;;;;;;312.88;286.88;;;;;;;17.92;27.48;93086.69;5034819;28;20304;-74
2022/04/05 06:52:09;;;;;;;306.45;280.63;;;;;;;17.92;27.33;93076.63;5031152;28;20060;-74
2022/04/05 06:54:34;;;;;;;301.55;276.08;;;;;;;17.91;27.50;93093.34;5027922;28;20172;-75
2022/04/05 06:57:00;;;;;;;304.33;278.70;;;;;;;17.90;27.52;93084.47;5033936;28;20053;-74
2022/04/05 06:59:25;;;;;;;302.20;276.40;;;;;;;17.90;27.51;93089.13;5023523;28;20041;-74
2022/04/05 07:01:51;;;;;;;309.38;283.52;;;;;;;17.90;27.72;93083.72;5027585;28;20049;-74
2022/04/05 07:04:16;;;;;;;316.15;289.67;;;;;;;17.88;27.34;93083.47;5027887;28;20501;-74
2022/04/05 07:06:42;;;;;;;313.50;287.27;;;;;;;17.87;27.68;93087.38;5028510;28;20069;-73
2022/04/05 07:09:09;;;;;;;310.40;284.42;;;;;;;17.87;27.62;93084.69;5028094;28;20073;-71
2022/04/05 07:11:34;;;;;;;299.38;273.50;;;;;;;17.87;27.36;93079.28;5032993;28;20065;-73
2022/04/05 07:14:00;;;;;;;307.63;281.35;;;;;;;17.89;27.64;93082.25;5027445;28;20107;-69
2022/04/05 07:16:25;;;;;;;310.55;284.88;;;;;;;17.89;27.57;93087.66;5020532;28;20076;-69
2022/04/05 07:18:51;;;;;;;301.13;275.30;;;;;;;17.88;27.61;93083.47;5022513;28;20502;-69
2022/04/05 07:21:20;;;;;;;313.40;287.08;;;;;;;17.89;27.49;93087.66;5027123;28;20045;-69
2022/04/05 07:23:49;;;;;;;304.00;278.10;;;;;;;17.89;27.45;93091.09;5039734;28;20146;-69
2022/04/05 07:26:14;;;;;;;314.88;288.63;;;;;;;17.91;27.55;93083.25;5036524;28;20053;-69
2022/04/05 07:28:40;;;;;;;321.80;294.92;;;;;;;17.90;27.74;93087.19;5026966;28;20052;-69
2022/04/05 07:31:06;;;;;;;313.55;287.63;;;;;;;17.91;27.63;93082.50;5030270;28;20065;-69
2022/04/05 07:33:31;;;;;;;312.27;286.27;;;;;;;17.91;27.57;93085.97;5028723;28;20439;-70
2022/04/05 07:35:57;;;;;;;312.00;286.23;;;;;;;17.94;27.73;93086.97;5013245;28;20081;-69
2022/04/05 07:38:24;;;;;;;322.75;296.50;;;;;;;17.93;27.63;93088.19;5027969;28;20104;-70
2022/04/05 07:40:50;;;;;;;308.02;282.48;;;;;;;17.91;27.70;93080.53;5029028;28;20072;-69
2022/04/05 07:43:22;;;;;;;309.73;284.05;;;;;;;17.93;27.65;93088.94;5027933;28;20045;-69
2022/04/05 07:45:49;;;;;;;311.35;285.77;;;;;;;17.94;27.70;93092.38;5036114;28;20045;-69
2022/04/05 07:48:16;;;;;;;309.85;284.15;;;;;;;17.96;27.68;93087.25;5031639;28;20050;-69
2022/04/05 07:50:42;;;;;;;305.70;280.58;;;;;;;17.98;27.65;93080.13;5027484;28;20132;-69
2022/04/05 07:53:07;;;;;;;311.50;285.83;;;;;;;17.98;27.64;93090.22;5012942;28;20431;-70
2022/04/05 07:55:33;;;;;;;316.52;290.33;;;;;;;18.00;27.69;93085.81;5024993;28;20040;-69
2022/04/05 07:57:58;;;;;;;303.92;278.77;;;;;;;17.99;27.81;93084.31;5036292;28;20053;-70
2022/04/05 08:00:26;;;;;;;314.20;288.23;;;;;;;18.01;27.46;93078.44;5034532;28;20054;-70
2022/04/05 08:02:51;;;;;;;316.80;290.83;;;;;;;18.00;27.51;93083.09;5027433;28;20041;-70
2022/04/05 08:05:17;;;;;;;306.48;280.83;;;;;;;18.00;27.45;93093.94;5027022;28;20045;-70
2022/04/05 08:07:43;;;;;;;302.88;277.33;;;;;;;17.98;27.43;93090.97;5024800;28;20042;-69
2022/04/05 08:10:09;;;;;;;315.48;289.48;;;;;;;17.95;27.66;93081.09;5021100;28;20044;-68
2022/04/05 08:12:46;;;;;;;317.00;291.10;;;;;;;17.91;27.51;93085.97;5028764;28;20414;-70
2022/04/05 08:15:17;;;;;;;300.63;275.15;;;;;;;17.90;27.73;93094.53;5027519;28;20042;-70
2022/04/05 08:17:42;;;;;;;309.35;283.73;;;;;;;17.88;27.92;93102.38;5024191;28;20041;-70
2022/04/05 08:20:09;;;;;;;314.15;288.50;;;;;;;17.86;27.71;93100.16;5026213;28;20052;-70
2022/04/05 08:22:34;;;;;;;317.63;291.35;;;;;;;17.88;27.97;93100.44;5019929;28;20486;-70
2022/04/05 08:25:00;;;;;;;328.05;300.23;;;;;;;17.88;28.06;93094.28;5026348;28;20049;-70
2022/04/05 08:27:26;;;;;;;333.65;306.20;;;;;;;17.88;28.15;93099.69;5021216;28;20129;-70
2022/04/05 08:29:51;;;;;;;330.23;303.35;;;;;;;17.87;27.91;93092.78;5026235;28;20049;-70
2022/04/05 08:32:17;;;;;;;316.33;290.25;;;;;;;17.86;27.94;93083.19;5027191;28;20056;-68
2022/04/05 08:34:45;;;;;;;310.95;285.33;;;;;;;17.86;27.99;93091.31;5028151;28;20135;-68
2022/04/05 08:37:12;;;;;;;331.92;304.17;;;;;;;17.84;28.08;93097.19;5026026;28;20073;-67
2022/04/05 08:39:39;;;;;;;315.27;289.08;;;;;;;17.85;27.97;93092.53;5031170;28;20144;-68
2022/04/05 08:42:06;;;;;;;317.20;290.85;;;;;;;17.84;28.10;93101.84;5025808;28;20103;-67
2022/04/05 08:44:32;;;;;;;316.83;290.40;;;;;;;17.82;28.24;93099.63;5010525;28;20098;-68
2022/04/05 08:47:00;;;;;;;316.95;290.63;;;;;;;17.83;28.21;93098.41;5029925;28;20053;-69
2022/04/05 08:49:28;;;;;;;314.70;288.58;;;;;;;17.84;28.23;93101.84;5026563;28;20049;-69
2022/04/05 08:51:53;;;;;;;313.65;287.80;;;;;;;17.83;28.13;93092.25;5027110;28;20455;-68
2022/04/05 08:54:18;;;;;;;316.00;289.67;;;;;;;17.83;28.26;93106.53;5027194;28;20057;-68
2022/04/05 08:56:44;;;;;;;321.30;294.75;;;;;;;17.84;28.30;93104.56;5023525;28;20049;-68
2022/04/05 08:59:09;;;;;;;314.02;288.00;;;;;;;17.84;28.43;93107.25;5026248;28;20045;-69
2022/04/05 09:01:35;;;;;;;316.30;289.85;;;;;;;17.84;28.56;93110.72;5012126;28;20695;-68
2022/04/05 09:04:01;;;;;;;317.77;291.55;;;;;;;17.83;28.32;93103.81;5025522;28;20469;-69
2022/04/05 09:06:35;;;;;;;318.23;291.85;;;;;;;17.84;28.45;93112.66;5025164;28;20071;-69
2022/04/05 09:09:08;;;;;;;310.05;284.13;;;;;;;17.83;28.52;93103.81;5027309;28;20041;-69
2022/04/05 09:11:34;;;;;;;309.95;284.10;;;;;;;17.84;28.44;93096.44;5031019;28;20049;-69
2022/04/05 09:14:02;;;;;;;307.67;281.90;;;;;;;17.85;28.68;93097.94;5020634;28;20042;-70
2022/04/05 09:16:33;;;;;;;309.88;284.05;;;;;;;17.85;28.43;93100.63;5021198;28;20056;-69
2022/04/05 09:19:00;;;;;;;302.67;277.17;;;;;;;17.87;28.38;93106.31;5021647;28;20133;-69
2022/04/05 09:21:26;;;;;;;303.17;277.45;;;;;;;17.87;28.36;93117.13;5023446;28;20488;-69
2022/04/05 09:23:52;;;;;;;313.08;287.08;;;;;;;17.89;28.42;93114.69;5024963;28;20508;-68
2022/04/05 09:26:19;;;;;;;319.05;292.77;;;;;;;17.88;28.48;93107.81;5024154;28;20148;-68
2022/04/05 09:28:47;;;;;;;306.08;280.30;;;;;;;17.88;28.62;93097.72;5030475;28;20183;-68
2022/04/05 09:31:15;;;;;;;324.35;296.88;;;;;;;17.90;28.59;93102.66;5015685;28;20183;-68
2022/04/05 09:34:02;;;;;;;320.60;293.90;;;;;;;17.91;28.73;93096.03;5019158;28;20045;-68
2022/04/05 09:36:39;;;;;;;315.58;288.92;;;;;;;17.96;28.52;93095.34;5024663;28;20099;-67
2022/04/05 09:39:10;;;;;;;317.33;291.00;;;;;;;17.99;28.40;93087.03;5025959;28;20053;-68
2022/04/05 09:41:36;;;;;;;318.67;292.02;;;;;;;18.00;28.64;93082.38;5025892;28;20425;-68
2022/04/05 09:44:02;;;;;;;307.52;281.33;;;;;;;17.98;28.59;93090.97;5025375;28;20181;-68
2022/04/05 09:46:29;;;;;;;315.45;288.92;;;;;;;17.98;28.41;93090.97;5026075;28;20044;-67
2022/04/05 09:49:07;;;;;;;310.85;284.45;;;;;;;17.99;28.63;93094.41;5019994;28;20042;-68
2022/04/05 09:51:45;;;;;;;315.65;289.38;;;;;;;17.97;28.84;93088.72;5025782;28;20088;-68
2022/04/05 09:54:27;;;;;;;317.45;291.02;;;;;;;17.98;28.59;93087.50;5032614;28;20045;-68
2022/04/05 09:57:01;;;;;;;312.77;286.65;;;;;;;17.98;28.84;93092.91;5025117;28;20073;-69
2022/04/05 09:59:36;;;;;;;307.77;282.00;;;;;;;17.97;28.72;93088.72;5030144;28;20115;-68
2022/04/05 10:02:16;;;;;;;308.55;282.23;;;;;;;17.98;28.76;93084.81;5025990;28;20116;-68
2022/04/05 10:05:07;;;;;;;316.35;289.73;;;;;;;17.96;28.64;93090.69;5019198;28;20038;-68
2022/04/05 10:07:34;;;;;;;330.25;302.83;;;;;;;17.95;28.79;93089.19;5021295;28;20410;-67
2022/04/05 10:10:05;;;;;;;329.33;301.95;;;;;;;17.94;28.64;93092.38;5023616;28;20067;-67
2022/04/05 10:12:31;;;;;;;323.50;296.48;;;;;;;17.93;28.87;93093.59;5022295;28;20049;-68
2022/04/05 10:14:59;;;;;;;347.35;317.67;;;;;;;17.94;28.49;93092.38;5022501;28;20122;-67
2022/04/05 10:17:26;;;;;;;329.23;301.98;;;;;;;17.92;28.46;93097.53;5024313;28;20041;-68
2022/04/05 10:19:54;;;;;;;303.17;276.45;;;;;;;17.92;28.71;93092.84;5027300;28;20038;-69
2022/04/05 10:22:22;;;;;;;296.38;271.10;;;;;;;17.93;28.74;93093.59;5023380;28;20138;-68
2022/04/05 10:24:51;;;;;;;300.00;273.88;;;;;;;17.91;28.71;93096.03;5031462;28;20049;-68
2022/04/05 10:27:18;;;;;;;306.50;279.90;;;;;;;17.89;28.57;93095.75;5026377;28;20053;-69
2022/04/05 10:29:44;;;;;;;286.48;261.75;;;;;;;17.87;28.65;93103.59;5022797;28;20108;-68
2022/04/05 10:32:22;;;;;;;293.83;268.05;;;;;;;17.86;28.83;93100.16;5027793;28;20132;-69
2022/04/05 10:35:01;;;;;;;306.30;279.77;;;;;;;17.85;28.75;93097.94;5028174;28;20033;-68
2022/04/05 10:37:36;;;;;;;316.90;290.23;;;;;;;17.83;28.81;93097.66;5027497;28;20143;-67
2022/04/05 10:40:01;;;;;;;327.30;299.33;;;;;;;17.84;28.81;93097.19;5023326;28;20045;-68
2022/04/05 10:42:38;;;;;;;327.50;299.17;;;;;;;17.84;28.91;93097.19;5021951;28;20093;-69
2022/04/05 10:45:21;;;;;;;338.80;309.30;;;;;;;17.85;29.07;93090.56;5016636;28;20049;-69
2022/04/05 10:48:12;;;;;;;316.60;289.25;;;;;;;17.89;28.87;93095.75;5017338;28;20382;-68
2022/04/05 10:50:43;;;;;;;317.80;290.80;;;;;;;17.87;29.29;93090.81;5024662;28;20041;-74
2022/04/05 10:53:31;;;;;;;324.45;297.00;;;;;;;17.86;29.21;93083.94;5025960;28;20208;-67
2022/04/05 10:56:03;;;;;;;314.98;288.42;;;;;;;17.92;29.19;93092.09;5018223;28;20046;-69
2022/04/05 10:58:48;;;;;;;326.30;299.17;;;;;;;17.93;29.23;93082.78;5021099;28;20052;-70
2022/04/05 11:01:14;;;;;;;330.33;302.95;;;;;;;17.96;29.29;93082.56;5030498;28;20042;-70
2022/04/05 11:03:40;;;;;;;352.27;322.52;;;;;;;17.98;29.20;93082.09;5023723;28;20053;-70